sensor_id;sensor_type;location;lat;lon;timestamp;P1;durP1;ratioP1;P2;durP2;ratioP2
6251;SDS011;3159;52.414;9.784;2024-01-07T00:00:16;12.37;;;7.63;;
6251;SDS011;3159;52.414;9.784;2024-01-07T00:02:43;11.10;;;7.33;;
6251;SDS011;3159;52.414;9.784;2024-01-07T00:05:11;12.33;;;7.53;;
6251;SDS011;3159;52.414;9.784;2024-01-07T00:07:38;11.50;;;7.93;;
6251;SDS011;3159;52.414;9.784;2024-01-07T00:10:05;9.80;;;7.50;;
6251;SDS011;3159;52.414;9.784;2024-01-07T00:12:34;10.77;;;7.30;;
6251;SDS011;3159;52.414;9.784;2024-01-07T00:15:00;8.13;;;6.57;;
6251;SDS011;3159;52.414;9.784;2024-01-07T00:17:27;8.20;;;6.10;;
6251;SDS011;3159;52.414;9.784;2024-01-07T00:19:54;8.90;;;6.40;;
6251;SDS011;3159;52.414;9.784;2024-01-07T00:22:22;8.20;;;6.03;;
6251;SDS011;3159;52.414;9.784;2024-01-07T00:24:50;11.13;;;6.57;;
6251;SDS011;3159;52.414;9.784;2024-01-07T00:27:16;9.50;;;6.63;;
6251;SDS011;3159;52.414;9.784;2024-01-07T00:29:43;10.10;;;7.00;;
6251;SDS011;3159;52.414;9.784;2024-01-07T00:32:10;10.83;;;6.80;;
6251;SDS011;3159;52.414;9.784;2024-01-07T00:34:37;9.13;;;6.70;;
6251;SDS011;3159;52.414;9.784;2024-01-07T00:37:03;9.93;;;6.10;;
6251;SDS011;3159;52.414;9.784;2024-01-07T00:39:32;10.57;;;6.70;;
6251;SDS011;3159;52.414;9.784;2024-01-07T00:41:58;11.43;;;6.77;;
6251;SDS011;3159;52.414;9.784;2024-01-07T00:44:25;10.63;;;6.90;;
6251;SDS011;3159;52.414;9.784;2024-01-07T00:46:52;11.27;;;6.80;;
6251;SDS011;3159;52.414;9.784;2024-01-07T00:49:19;11.73;;;7.77;;
6251;SDS011;3159;52.414;9.784;2024-01-07T00:51:45;13.00;;;7.33;;
6251;SDS011;3159;52.414;9.784;2024-01-07T00:54:12;9.97;;;7.03;;
6251;SDS011;3159;52.414;9.784;2024-01-07T00:56:40;15.93;;;7.83;;
6251;SDS011;3159;52.414;9.784;2024-01-07T00:59:07;9.97;;;6.87;;
6251;SDS011;3159;52.414;9.784;2024-01-07T01:01:34;10.13;;;7.10;;
6251;SDS011;3159;52.414;9.784;2024-01-07T01:04:01;9.50;;;7.53;;
6251;SDS011;3159;52.414;9.784;2024-01-07T01:06:27;14.40;;;8.10;;
6251;SDS011;3159;52.414;9.784;2024-01-07T01:08:54;10.27;;;7.07;;
6251;SDS011;3159;52.414;9.784;2024-01-07T01:11:21;9.50;;;7.07;;
6251;SDS011;3159;52.414;9.784;2024-01-07T01:13:49;11.30;;;6.63;;
6251;SDS011;3159;52.414;9.784;2024-01-07T01:16:16;10.93;;;6.53;;
6251;SDS011;3159;52.414;9.784;2024-01-07T01:18:43;10.77;;;6.67;;
6251;SDS011;3159;52.414;9.784;2024-01-07T01:21:09;10.40;;;6.57;;
6251;SDS011;3159;52.414;9.784;2024-01-07T01:23:37;9.97;;;6.30;;
6251;SDS011;3159;52.414;9.784;2024-01-07T01:26:04;8.97;;;5.70;;
6251;SDS011;3159;52.414;9.784;2024-01-07T01:28:30;13.00;;;6.10;;
6251;SDS011;3159;52.414;9.784;2024-01-07T01:30:58;10.17;;;6.40;;
6251;SDS011;3159;52.414;9.784;2024-01-07T01:33:25;11.60;;;6.13;;
6251;SDS011;3159;52.414;9.784;2024-01-07T01:35:52;9.33;;;6.07;;
6251;SDS011;3159;52.414;9.784;2024-01-07T01:38:19;10.50;;;6.67;;
6251;SDS011;3159;52.414;9.784;2024-01-07T01:40:50;11.67;;;6.77;;
6251;SDS011;3159;52.414;9.784;2024-01-07T01:43:22;9.63;;;6.27;;
6251;SDS011;3159;52.414;9.784;2024-01-07T01:45:49;8.00;;;5.80;;
6251;SDS011;3159;52.414;9.784;2024-01-07T01:48:18;11.10;;;7.20;;
6251;SDS011;3159;52.414;9.784;2024-01-07T01:50:45;10.90;;;7.10;;
6251;SDS011;3159;52.414;9.784;2024-01-07T01:53:12;8.83;;;6.27;;
6251;SDS011;3159;52.414;9.784;2024-01-07T01:55:40;8.53;;;6.00;;
6251;SDS011;3159;52.414;9.784;2024-01-07T01:58:07;8.03;;;6.00;;
6251;SDS011;3159;52.414;9.784;2024-01-07T02:00:35;11.03;;;6.13;;
6251;SDS011;3159;52.414;9.784;2024-01-07T02:03:02;8.37;;;5.83;;
6251;SDS011;3159;52.414;9.784;2024-01-07T02:05:31;8.13;;;5.80;;
6251;SDS011;3159;52.414;9.784;2024-01-07T02:07:58;7.77;;;5.63;;
6251;SDS011;3159;52.414;9.784;2024-01-07T02:10:25;10.33;;;5.47;;
6251;SDS011;3159;52.414;9.784;2024-01-07T02:12:54;8.27;;;5.67;;
6251;SDS011;3159;52.414;9.784;2024-01-07T02:15:20;11.23;;;5.77;;
6251;SDS011;3159;52.414;9.784;2024-01-07T02:17:47;10.03;;;5.33;;
6251;SDS011;3159;52.414;9.784;2024-01-07T02:20:14;9.57;;;5.67;;
6251;SDS011;3159;52.414;9.784;2024-01-07T02:22:42;8.73;;;5.60;;
6251;SDS011;3159;52.414;9.784;2024-01-07T02:25:10;7.93;;;5.90;;
6251;SDS011;3159;52.414;9.784;2024-01-07T02:27:37;8.37;;;5.53;;
6251;SDS011;3159;52.414;9.784;2024-01-07T02:30:04;7.13;;;5.90;;
6251;SDS011;3159;52.414;9.784;2024-01-07T02:32:32;10.93;;;5.63;;
6251;SDS011;3159;52.414;9.784;2024-01-07T02:35:00;8.33;;;5.33;;
6251;SDS011;3159;52.414;9.784;2024-01-07T02:37:27;9.43;;;5.30;;
6251;SDS011;3159;52.414;9.784;2024-01-07T02:39:54;8.80;;;5.20;;
6251;SDS011;3159;52.414;9.784;2024-01-07T02:42:22;8.90;;;4.83;;
6251;SDS011;3159;52.414;9.784;2024-01-07T02:44:48;8.23;;;5.43;;
6251;SDS011;3159;52.414;9.784;2024-01-07T02:47:15;6.23;;;4.33;;
6251;SDS011;3159;52.414;9.784;2024-01-07T02:49:42;6.33;;;4.57;;
6251;SDS011;3159;52.414;9.784;2024-01-07T02:52:09;8.20;;;5.47;;
6251;SDS011;3159;52.414;9.784;2024-01-07T02:54:36;7.30;;;5.20;;
6251;SDS011;3159;52.414;9.784;2024-01-07T02:57:02;10.17;;;5.40;;
6251;SDS011;3159;52.414;9.784;2024-01-07T02:59:31;8.10;;;5.20;;
6251;SDS011;3159;52.414;9.784;2024-01-07T03:01:58;8.80;;;5.00;;
6251;SDS011;3159;52.414;9.784;2024-01-07T03:04:24;9.53;;;5.20;;
6251;SDS011;3159;52.414;9.784;2024-01-07T03:06:51;6.47;;;4.40;;
6251;SDS011;3159;52.414;9.784;2024-01-07T03:09:18;5.03;;;4.30;;
6251;SDS011;3159;52.414;9.784;2024-01-07T03:11:45;9.23;;;4.33;;
6251;SDS011;3159;52.414;9.784;2024-01-07T03:14:11;6.40;;;4.20;;
6251;SDS011;3159;52.414;9.784;2024-01-07T03:16:39;6.03;;;4.17;;
6251;SDS011;3159;52.414;9.784;2024-01-07T03:19:06;7.73;;;4.50;;
6251;SDS011;3159;52.414;9.784;2024-01-07T03:21:33;5.50;;;4.20;;
6251;SDS011;3159;52.414;9.784;2024-01-07T03:24:00;7.37;;;4.17;;
6251;SDS011;3159;52.414;9.784;2024-01-07T03:26:29;7.30;;;4.10;;
6251;SDS011;3159;52.414;9.784;2024-01-07T03:28:57;5.13;;;4.23;;
6251;SDS011;3159;52.414;9.784;2024-01-07T03:31:25;6.20;;;3.57;;
6251;SDS011;3159;52.414;9.784;2024-01-07T03:33:53;5.47;;;4.27;;
6251;SDS011;3159;52.414;9.784;2024-01-07T03:36:20;7.67;;;4.10;;
6251;SDS011;3159;52.414;9.784;2024-01-07T03:38:47;4.83;;;3.60;;
6251;SDS011;3159;52.414;9.784;2024-01-07T03:41:15;7.27;;;3.80;;
6251;SDS011;3159;52.414;9.784;2024-01-07T03:43:43;5.83;;;3.43;;
6251;SDS011;3159;52.414;9.784;2024-01-07T03:46:10;4.07;;;3.40;;
6251;SDS011;3159;52.414;9.784;2024-01-07T03:48:37;4.47;;;3.70;;
6251;SDS011;3159;52.414;9.784;2024-01-07T03:51:05;4.77;;;3.23;;
6251;SDS011;3159;52.414;9.784;2024-01-07T03:53:32;4.77;;;3.30;;
6251;SDS011;3159;52.414;9.784;2024-01-07T03:55:59;4.13;;;3.63;;
6251;SDS011;3159;52.414;9.784;2024-01-07T03:58:26;5.93;;;3.10;;
6251;SDS011;3159;52.414;9.784;2024-01-07T04:00:53;4.87;;;3.33;;
6251;SDS011;3159;52.414;9.784;2024-01-07T04:03:19;5.33;;;3.33;;
6251;SDS011;3159;52.414;9.784;2024-01-07T04:05:46;5.80;;;3.07;;
6251;SDS011;3159;52.414;9.784;2024-01-07T04:08:14;6.07;;;2.93;;
6251;SDS011;3159;52.414;9.784;2024-01-07T04:10:41;3.33;;;2.77;;
6251;SDS011;3159;52.414;9.784;2024-01-07T04:13:08;3.40;;;2.50;;
6251;SDS011;3159;52.414;9.784;2024-01-07T04:15:35;5.17;;;3.40;;
6251;SDS011;3159;52.414;9.784;2024-01-07T04:18:02;3.37;;;2.80;;
6251;SDS011;3159;52.414;9.784;2024-01-07T04:20:29;3.73;;;2.93;;
6251;SDS011;3159;52.414;9.784;2024-01-07T04:22:56;4.27;;;2.57;;
6251;SDS011;3159;52.414;9.784;2024-01-07T04:25:24;3.67;;;2.50;;
6251;SDS011;3159;52.414;9.784;2024-01-07T04:27:51;4.20;;;2.67;;
6251;SDS011;3159;52.414;9.784;2024-01-07T04:30:18;2.50;;;2.30;;
6251;SDS011;3159;52.414;9.784;2024-01-07T04:32:45;3.43;;;2.70;;
6251;SDS011;3159;52.414;9.784;2024-01-07T04:35:12;3.77;;;2.60;;
6251;SDS011;3159;52.414;9.784;2024-01-07T04:37:39;4.10;;;2.60;;
6251;SDS011;3159;52.414;9.784;2024-01-07T04:40:06;4.53;;;2.70;;
6251;SDS011;3159;52.414;9.784;2024-01-07T04:42:34;2.83;;;2.37;;
6251;SDS011;3159;52.414;9.784;2024-01-07T04:45:01;4.83;;;2.50;;
6251;SDS011;3159;52.414;9.784;2024-01-07T04:47:29;4.70;;;2.27;;
6251;SDS011;3159;52.414;9.784;2024-01-07T04:49:57;3.57;;;2.10;;
6251;SDS011;3159;52.414;9.784;2024-01-07T04:52:24;3.57;;;2.50;;
6251;SDS011;3159;52.414;9.784;2024-01-07T04:54:51;5.27;;;2.90;;
6251;SDS011;3159;52.414;9.784;2024-01-07T04:57:18;3.70;;;2.60;;
6251;SDS011;3159;52.414;9.784;2024-01-07T04:59:47;2.87;;;2.47;;
6251;SDS011;3159;52.414;9.784;2024-01-07T05:02:14;5.13;;;2.47;;
6251;SDS011;3159;52.414;9.784;2024-01-07T05:04:42;2.80;;;2.57;;
6251;SDS011;3159;52.414;9.784;2024-01-07T05:07:09;4.10;;;2.60;;
6251;SDS011;3159;52.414;9.784;2024-01-07T05:09:36;4.33;;;2.43;;
6251;SDS011;3159;52.414;9.784;2024-01-07T05:12:03;3.10;;;2.70;;
6251;SDS011;3159;52.414;9.784;2024-01-07T05:14:30;5.17;;;2.50;;
6251;SDS011;3159;52.414;9.784;2024-01-07T05:16:58;3.77;;;2.73;;
6251;SDS011;3159;52.414;9.784;2024-01-07T05:19:25;3.73;;;2.70;;
6251;SDS011;3159;52.414;9.784;2024-01-07T05:21:52;5.57;;;2.57;;
6251;SDS011;3159;52.414;9.784;2024-01-07T05:24:19;2.63;;;2.17;;
6251;SDS011;3159;52.414;9.784;2024-01-07T05:26:46;4.43;;;2.53;;
6251;SDS011;3159;52.414;9.784;2024-01-07T05:29:13;3.00;;;2.57;;
6251;SDS011;3159;52.414;9.784;2024-01-07T05:31:40;2.40;;;2.20;;
6251;SDS011;3159;52.414;9.784;2024-01-07T05:34:08;3.37;;;2.57;;
6251;SDS011;3159;52.414;9.784;2024-01-07T05:36:34;2.40;;;2.20;;
6251;SDS011;3159;52.414;9.784;2024-01-07T05:39:01;2.97;;;2.40;;
6251;SDS011;3159;52.414;9.784;2024-01-07T05:41:29;4.77;;;2.87;;
6251;SDS011;3159;52.414;9.784;2024-01-07T05:43:56;4.00;;;2.77;;
6251;SDS011;3159;52.414;9.784;2024-01-07T05:46:22;4.70;;;2.53;;
6251;SDS011;3159;52.414;9.784;2024-01-07T05:48:49;2.97;;;2.47;;
6251;SDS011;3159;52.414;9.784;2024-01-07T05:51:17;2.97;;;2.33;;
6251;SDS011;3159;52.414;9.784;2024-01-07T05:53:44;3.57;;;2.70;;
6251;SDS011;3159;52.414;9.784;2024-01-07T05:56:11;3.63;;;2.20;;
6251;SDS011;3159;52.414;9.784;2024-01-07T05:58:38;4.10;;;2.50;;
6251;SDS011;3159;52.414;9.784;2024-01-07T06:01:06;2.83;;;2.47;;
6251;SDS011;3159;52.414;9.784;2024-01-07T06:03:33;2.40;;;2.17;;
6251;SDS011;3159;52.414;9.784;2024-01-07T06:06:00;3.67;;;2.50;;
6251;SDS011;3159;52.414;9.784;2024-01-07T06:08:28;2.83;;;2.40;;
6251;SDS011;3159;52.414;9.784;2024-01-07T06:10:55;4.67;;;2.80;;
6251;SDS011;3159;52.414;9.784;2024-01-07T06:13:23;2.53;;;2.20;;
6251;SDS011;3159;52.414;9.784;2024-01-07T06:15:49;2.50;;;2.30;;
6251;SDS011;3159;52.414;9.784;2024-01-07T06:18:16;3.53;;;2.40;;
6251;SDS011;3159;52.414;9.784;2024-01-07T06:20:43;2.53;;;2.20;;
6251;SDS011;3159;52.414;9.784;2024-01-07T06:23:10;3.03;;;2.23;;
6251;SDS011;3159;52.414;9.784;2024-01-07T06:25:38;3.80;;;2.40;;
6251;SDS011;3159;52.414;9.784;2024-01-07T06:28:05;4.33;;;2.80;;
6251;SDS011;3159;52.414;9.784;2024-01-07T06:30:32;5.03;;;2.30;;
6251;SDS011;3159;52.414;9.784;2024-01-07T06:32:59;4.03;;;2.17;;
6251;SDS011;3159;52.414;9.784;2024-01-07T06:35:26;4.20;;;2.40;;
6251;SDS011;3159;52.414;9.784;2024-01-07T06:37:53;4.13;;;2.53;;
6251;SDS011;3159;52.414;9.784;2024-01-07T06:40:20;2.53;;;2.00;;
6251;SDS011;3159;52.414;9.784;2024-01-07T06:42:49;3.43;;;2.33;;
6251;SDS011;3159;52.414;9.784;2024-01-07T06:45:16;2.87;;;2.13;;
6251;SDS011;3159;52.414;9.784;2024-01-07T06:47:43;3.50;;;2.57;;
6251;SDS011;3159;52.414;9.784;2024-01-07T06:50:11;4.37;;;2.50;;
6251;SDS011;3159;52.414;9.784;2024-01-07T06:52:38;3.23;;;2.50;;
6251;SDS011;3159;52.414;9.784;2024-01-07T06:55:06;3.13;;;2.17;;
6251;SDS011;3159;52.414;9.784;2024-01-07T06:57:33;3.00;;;2.67;;
6251;SDS011;3159;52.414;9.784;2024-01-07T07:00:01;3.97;;;2.50;;
6251;SDS011;3159;52.414;9.784;2024-01-07T07:02:29;3.37;;;2.33;;
6251;SDS011;3159;52.414;9.784;2024-01-07T07:04:56;2.80;;;2.53;;
6251;SDS011;3159;52.414;9.784;2024-01-07T07:07:22;2.57;;;2.37;;
6251;SDS011;3159;52.414;9.784;2024-01-07T07:09:49;4.20;;;2.93;;
6251;SDS011;3159;52.414;9.784;2024-01-07T07:12:17;2.70;;;2.50;;
6251;SDS011;3159;52.414;9.784;2024-01-07T07:14:44;4.20;;;2.37;;
6251;SDS011;3159;52.414;9.784;2024-01-07T07:17:12;3.70;;;2.67;;
6251;SDS011;3159;52.414;9.784;2024-01-07T07:19:39;3.67;;;2.60;;
6251;SDS011;3159;52.414;9.784;2024-01-07T07:22:06;3.23;;;2.77;;
6251;SDS011;3159;52.414;9.784;2024-01-07T07:24:33;4.93;;;3.00;;
6251;SDS011;3159;52.414;9.784;2024-01-07T07:26:59;3.37;;;2.87;;
6251;SDS011;3159;52.414;9.784;2024-01-07T07:29:26;3.83;;;2.60;;
6251;SDS011;3159;52.414;9.784;2024-01-07T07:31:53;2.67;;;2.47;;
6251;SDS011;3159;52.414;9.784;2024-01-07T07:34:21;3.90;;;2.63;;
6251;SDS011;3159;52.414;9.784;2024-01-07T07:36:48;5.63;;;3.27;;
6251;SDS011;3159;52.414;9.784;2024-01-07T07:39:15;3.83;;;3.10;;
6251;SDS011;3159;52.414;9.784;2024-01-07T07:41:41;3.43;;;2.57;;
6251;SDS011;3159;52.414;9.784;2024-01-07T07:44:08;3.30;;;2.40;;
6251;SDS011;3159;52.414;9.784;2024-01-07T07:46:35;2.93;;;2.40;;
6251;SDS011;3159;52.414;9.784;2024-01-07T07:49:02;3.23;;;2.63;;
6251;SDS011;3159;52.414;9.784;2024-01-07T07:51:30;3.07;;;2.50;;
6251;SDS011;3159;52.414;9.784;2024-01-07T07:53:57;2.33;;;2.13;;
6251;SDS011;3159;52.414;9.784;2024-01-07T07:56:24;2.47;;;2.27;;
6251;SDS011;3159;52.414;9.784;2024-01-07T07:58:50;3.53;;;2.83;;
6251;SDS011;3159;52.414;9.784;2024-01-07T08:01:17;3.50;;;2.43;;
6251;SDS011;3159;52.414;9.784;2024-01-07T08:03:44;4.73;;;3.10;;
6251;SDS011;3159;52.414;9.784;2024-01-07T08:06:11;3.70;;;2.87;;
6251;SDS011;3159;52.414;9.784;2024-01-07T08:08:39;4.07;;;2.63;;
6251;SDS011;3159;52.414;9.784;2024-01-07T08:11:06;3.77;;;2.73;;
6251;SDS011;3159;52.414;9.784;2024-01-07T08:13:34;4.37;;;2.77;;
6251;SDS011;3159;52.414;9.784;2024-01-07T08:16:02;2.57;;;2.37;;
6251;SDS011;3159;52.414;9.784;2024-01-07T08:18:30;4.40;;;2.40;;
6251;SDS011;3159;52.414;9.784;2024-01-07T08:20:58;3.17;;;2.77;;
6251;SDS011;3159;52.414;9.784;2024-01-07T08:23:25;3.17;;;2.30;;
6251;SDS011;3159;52.414;9.784;2024-01-07T08:25:53;3.40;;;2.40;;
6251;SDS011;3159;52.414;9.784;2024-01-07T08:28:20;3.97;;;2.73;;
6251;SDS011;3159;52.414;9.784;2024-01-07T08:30:47;3.20;;;2.40;;
6251;SDS011;3159;52.414;9.784;2024-01-07T08:33:16;3.53;;;2.57;;
6251;SDS011;3159;52.414;9.784;2024-01-07T08:35:43;2.43;;;2.17;;
6251;SDS011;3159;52.414;9.784;2024-01-07T08:38:10;2.63;;;2.43;;
6251;SDS011;3159;52.414;9.784;2024-01-07T08:40:37;2.60;;;2.13;;
6251;SDS011;3159;52.414;9.784;2024-01-07T08:43:06;3.03;;;2.30;;
6251;SDS011;3159;52.414;9.784;2024-01-07T08:45:33;3.00;;;2.10;;
6251;SDS011;3159;52.414;9.784;2024-01-07T08:48:00;2.93;;;2.43;;
6251;SDS011;3159;52.414;9.784;2024-01-07T08:50:27;3.20;;;2.23;;
6251;SDS011;3159;52.414;9.784;2024-01-07T08:52:55;4.07;;;2.20;;
6251;SDS011;3159;52.414;9.784;2024-01-07T08:55:22;5.27;;;2.27;;
6251;SDS011;3159;52.414;9.784;2024-01-07T08:57:48;2.80;;;2.20;;
6251;SDS011;3159;52.414;9.784;2024-01-07T09:00:18;2.87;;;2.37;;
6251;SDS011;3159;52.414;9.784;2024-01-07T09:02:46;2.33;;;2.13;;
6251;SDS011;3159;52.414;9.784;2024-01-07T09:05:13;3.07;;;2.10;;
6251;SDS011;3159;52.414;9.784;2024-01-07T09:07:40;3.07;;;2.07;;
6251;SDS011;3159;52.414;9.784;2024-01-07T09:10:07;2.30;;;2.10;;
6251;SDS011;3159;52.414;9.784;2024-01-07T09:12:35;3.40;;;2.50;;
6251;SDS011;3159;52.414;9.784;2024-01-07T09:15:04;3.00;;;2.37;;
6251;SDS011;3159;52.414;9.784;2024-01-07T09:17:34;2.87;;;2.07;;
6251;SDS011;3159;52.414;9.784;2024-01-07T09:20:01;2.93;;;2.23;;
6251;SDS011;3159;52.414;9.784;2024-01-07T09:22:30;2.77;;;2.17;;
6251;SDS011;3159;52.414;9.784;2024-01-07T09:24:57;3.70;;;2.60;;
6251;SDS011;3159;52.414;9.784;2024-01-07T09:27:24;5.30;;;2.40;;
6251;SDS011;3159;52.414;9.784;2024-01-07T09:29:52;4.23;;;2.40;;
6251;SDS011;3159;52.414;9.784;2024-01-07T09:32:19;3.93;;;2.53;;
6251;SDS011;3159;52.414;9.784;2024-01-07T09:34:47;5.30;;;2.07;;
6251;SDS011;3159;52.414;9.784;2024-01-07T09:37:14;3.30;;;2.40;;
6251;SDS011;3159;52.414;9.784;2024-01-07T09:39:41;3.27;;;2.40;;
6251;SDS011;3159;52.414;9.784;2024-01-07T09:42:10;3.47;;;2.30;;
6251;SDS011;3159;52.414;9.784;2024-01-07T09:44:39;3.40;;;2.33;;
6251;SDS011;3159;52.414;9.784;2024-01-07T09:47:07;3.00;;;2.10;;
6251;SDS011;3159;52.414;9.784;2024-01-07T09:49:37;2.80;;;2.07;;
6251;SDS011;3159;52.414;9.784;2024-01-07T09:52:05;3.60;;;2.30;;
6251;SDS011;3159;52.414;9.784;2024-01-07T09:54:33;2.93;;;2.27;;
6251;SDS011;3159;52.414;9.784;2024-01-07T09:57:03;2.93;;;2.17;;
6251;SDS011;3159;52.414;9.784;2024-01-07T09:59:32;2.30;;;2.10;;
6251;SDS011;3159;52.414;9.784;2024-01-07T10:02:00;2.70;;;2.40;;
6251;SDS011;3159;52.414;9.784;2024-01-07T10:04:27;3.67;;;2.30;;
6251;SDS011;3159;52.414;9.784;2024-01-07T10:06:54;3.53;;;2.50;;
6251;SDS011;3159;52.414;9.784;2024-01-07T10:09:23;2.20;;;2.00;;
6251;SDS011;3159;52.414;9.784;2024-01-07T10:11:51;2.43;;;2.10;;
6251;SDS011;3159;52.414;9.784;2024-01-07T10:14:18;4.30;;;2.30;;
6251;SDS011;3159;52.414;9.784;2024-01-07T10:16:48;2.53;;;1.83;;
6251;SDS011;3159;52.414;9.784;2024-01-07T10:19:18;3.43;;;2.63;;
6251;SDS011;3159;52.414;9.784;2024-01-07T10:21:47;2.93;;;2.33;;
6251;SDS011;3159;52.414;9.784;2024-01-07T10:24:28;5.70;;;2.60;;
6251;SDS011;3159;52.414;9.784;2024-01-07T10:27:02;3.50;;;2.27;;
6251;SDS011;3159;52.414;9.784;2024-01-07T10:29:29;3.03;;;2.33;;
6251;SDS011;3159;52.414;9.784;2024-01-07T10:31:57;3.53;;;3.10;;
6251;SDS011;3159;52.414;9.784;2024-01-07T10:34:24;4.10;;;2.87;;
6251;SDS011;3159;52.414;9.784;2024-01-07T10:36:53;4.60;;;2.90;;
6251;SDS011;3159;52.414;9.784;2024-01-07T10:39:22;3.67;;;3.37;;
6251;SDS011;3159;52.414;9.784;2024-01-07T10:41:52;3.83;;;2.97;;
6251;SDS011;3159;52.414;9.784;2024-01-07T10:44:22;8.03;;;4.90;;
6251;SDS011;3159;52.414;9.784;2024-01-07T10:46:49;6.73;;;4.30;;
6251;SDS011;3159;52.414;9.784;2024-01-07T10:49:19;4.47;;;3.80;;
6251;SDS011;3159;52.414;9.784;2024-01-07T10:51:47;5.03;;;2.93;;
6251;SDS011;3159;52.414;9.784;2024-01-07T10:54:23;2.97;;;2.57;;
6251;SDS011;3159;52.414;9.784;2024-01-07T10:56:57;5.47;;;3.87;;
6251;SDS011;3159;52.414;9.784;2024-01-07T10:59:25;6.27;;;4.50;;
6251;SDS011;3159;52.414;9.784;2024-01-07T11:01:54;5.57;;;3.90;;
6251;SDS011;3159;52.414;9.784;2024-01-07T11:04:22;4.53;;;3.60;;
6251;SDS011;3159;52.414;9.784;2024-01-07T11:06:55;7.10;;;4.37;;
6251;SDS011;3159;52.414;9.784;2024-01-07T11:09:31;4.97;;;4.53;;
6251;SDS011;3159;52.414;9.784;2024-01-07T11:12:03;4.60;;;4.00;;
6251;SDS011;3159;52.414;9.784;2024-01-07T11:14:34;4.23;;;3.53;;
6251;SDS011;3159;52.414;9.784;2024-01-07T11:17:02;4.87;;;3.40;;
6251;SDS011;3159;52.414;9.784;2024-01-07T11:19:29;3.97;;;3.00;;
6251;SDS011;3159;52.414;9.784;2024-01-07T11:24:47;3.10;;;2.23;;
6251;SDS011;3159;52.414;9.784;2024-01-07T11:27:16;3.37;;;2.50;;
6251;SDS011;3159;52.414;9.784;2024-01-07T11:29:43;2.57;;;2.30;;
6251;SDS011;3159;52.414;9.784;2024-01-07T11:32:12;5.27;;;3.07;;
6251;SDS011;3159;52.414;9.784;2024-01-07T11:34:40;5.30;;;2.80;;
6251;SDS011;3159;52.414;9.784;2024-01-07T11:37:09;4.37;;;3.60;;
6251;SDS011;3159;52.414;9.784;2024-01-07T11:39:37;5.43;;;4.13;;
6251;SDS011;3159;52.414;9.784;2024-01-07T11:42:04;5.27;;;4.77;;
6251;SDS011;3159;52.414;9.784;2024-01-07T11:44:34;3.73;;;3.23;;
6251;SDS011;3159;52.414;9.784;2024-01-07T11:47:02;5.87;;;5.23;;
6251;SDS011;3159;52.414;9.784;2024-01-07T11:49:30;6.97;;;5.47;;
6251;SDS011;3159;52.414;9.784;2024-01-07T11:51:56;8.60;;;5.80;;
6251;SDS011;3159;52.414;9.784;2024-01-07T11:54:23;7.57;;;4.87;;
6251;SDS011;3159;52.414;9.784;2024-01-07T11:56:50;7.03;;;4.83;;
6251;SDS011;3159;52.414;9.784;2024-01-07T11:59:17;7.73;;;5.00;;
6251;SDS011;3159;52.414;9.784;2024-01-07T12:01:45;6.93;;;4.60;;
6251;SDS011;3159;52.414;9.784;2024-01-07T12:04:12;6.60;;;4.33;;
6251;SDS011;3159;52.414;9.784;2024-01-07T12:06:39;5.43;;;4.37;;
6251;SDS011;3159;52.414;9.784;2024-01-07T12:09:06;10.57;;;5.37;;
6251;SDS011;3159;52.414;9.784;2024-01-07T12:11:34;6.40;;;4.60;;
6251;SDS011;3159;52.414;9.784;2024-01-07T12:14:01;6.97;;;4.77;;
6251;SDS011;3159;52.414;9.784;2024-01-07T12:16:29;8.70;;;5.30;;
6251;SDS011;3159;52.414;9.784;2024-01-07T12:18:57;6.77;;;4.67;;
6251;SDS011;3159;52.414;9.784;2024-01-07T12:21:24;6.43;;;5.00;;
6251;SDS011;3159;52.414;9.784;2024-01-07T12:23:52;4.63;;;3.70;;
6251;SDS011;3159;52.414;9.784;2024-01-07T12:26:20;5.30;;;4.17;;
6251;SDS011;3159;52.414;9.784;2024-01-07T12:28:52;6.80;;;4.57;;
6251;SDS011;3159;52.414;9.784;2024-01-07T12:31:19;6.43;;;4.97;;
6251;SDS011;3159;52.414;9.784;2024-01-07T12:33:46;5.43;;;4.17;;
6251;SDS011;3159;52.414;9.784;2024-01-07T12:36:14;6.60;;;4.03;;
6251;SDS011;3159;52.414;9.784;2024-01-07T12:38:41;7.97;;;4.80;;
6251;SDS011;3159;52.414;9.784;2024-01-07T12:41:08;7.73;;;4.90;;
6251;SDS011;3159;52.414;9.784;2024-01-07T12:43:36;5.30;;;4.10;;
6251;SDS011;3159;52.414;9.784;2024-01-07T12:46:03;5.30;;;3.37;;
6251;SDS011;3159;52.414;9.784;2024-01-07T12:48:30;4.23;;;3.83;;
6251;SDS011;3159;52.414;9.784;2024-01-07T12:50:57;5.23;;;3.83;;
6251;SDS011;3159;52.414;9.784;2024-01-07T12:53:26;6.20;;;4.43;;
6251;SDS011;3159;52.414;9.784;2024-01-07T12:55:52;7.30;;;5.90;;
6251;SDS011;3159;52.414;9.784;2024-01-07T12:58:19;9.43;;;6.33;;
6251;SDS011;3159;52.414;9.784;2024-01-07T13:00:47;7.17;;;4.43;;
6251;SDS011;3159;52.414;9.784;2024-01-07T13:03:14;6.83;;;4.53;;
6251;SDS011;3159;52.414;9.784;2024-01-07T13:05:43;7.07;;;4.13;;
6251;SDS011;3159;52.414;9.784;2024-01-07T13:08:11;7.30;;;3.67;;
6251;SDS011;3159;52.414;9.784;2024-01-07T13:10:39;6.37;;;4.13;;
6251;SDS011;3159;52.414;9.784;2024-01-07T13:13:06;6.77;;;6.17;;
6251;SDS011;3159;52.414;9.784;2024-01-07T13:15:34;5.30;;;4.90;;
6251;SDS011;3159;52.414;9.784;2024-01-07T13:18:01;4.17;;;3.87;;
6251;SDS011;3159;52.414;9.784;2024-01-07T13:20:28;4.13;;;3.47;;
6251;SDS011;3159;52.414;9.784;2024-01-07T13:22:55;4.20;;;3.53;;
6251;SDS011;3159;52.414;9.784;2024-01-07T13:25:22;5.13;;;3.50;;
6251;SDS011;3159;52.414;9.784;2024-01-07T13:27:50;5.47;;;3.67;;
6251;SDS011;3159;52.414;9.784;2024-01-07T13:30:18;3.20;;;2.83;;
6251;SDS011;3159;52.414;9.784;2024-01-07T13:32:45;3.83;;;2.90;;
6251;SDS011;3159;52.414;9.784;2024-01-07T13:35:11;2.70;;;2.50;;
6251;SDS011;3159;52.414;9.784;2024-01-07T13:37:40;3.37;;;2.37;;
6251;SDS011;3159;52.414;9.784;2024-01-07T13:40:08;5.20;;;2.47;;
6251;SDS011;3159;52.414;9.784;2024-01-07T13:42:36;2.40;;;2.17;;
6251;SDS011;3159;52.414;9.784;2024-01-07T13:45:04;3.20;;;2.00;;
6251;SDS011;3159;52.414;9.784;2024-01-07T13:47:32;4.03;;;2.30;;
6251;SDS011;3159;52.414;9.784;2024-01-07T13:50:00;2.40;;;1.90;;
6251;SDS011;3159;52.414;9.784;2024-01-07T13:52:28;3.27;;;2.17;;
6251;SDS011;3159;52.414;9.784;2024-01-07T13:54:55;2.67;;;1.97;;
6251;SDS011;3159;52.414;9.784;2024-01-07T13:57:23;3.27;;;1.63;;
6251;SDS011;3159;52.414;9.784;2024-01-07T13:59:50;3.47;;;2.10;;
6251;SDS011;3159;52.414;9.784;2024-01-07T14:02:18;1.93;;;1.83;;
6251;SDS011;3159;52.414;9.784;2024-01-07T14:04:47;3.00;;;2.13;;
6251;SDS011;3159;52.414;9.784;2024-01-07T14:07:16;4.93;;;2.80;;
6251;SDS011;3159;52.414;9.784;2024-01-07T14:09:43;3.27;;;2.67;;
6251;SDS011;3159;52.414;9.784;2024-01-07T14:12:09;2.80;;;2.33;;
6251;SDS011;3159;52.414;9.784;2024-01-07T14:14:36;3.90;;;2.17;;
6251;SDS011;3159;52.414;9.784;2024-01-07T14:17:03;4.10;;;2.13;;
6251;SDS011;3159;52.414;9.784;2024-01-07T14:19:31;3.30;;;2.30;;
6251;SDS011;3159;52.414;9.784;2024-01-07T14:21:59;1.97;;;1.83;;
6251;SDS011;3159;52.414;9.784;2024-01-07T14:24:26;2.77;;;2.10;;
6251;SDS011;3159;52.414;9.784;2024-01-07T14:26:53;2.90;;;1.97;;
6251;SDS011;3159;52.414;9.784;2024-01-07T14:29:19;3.50;;;2.40;;
6251;SDS011;3159;52.414;9.784;2024-01-07T14:31:46;3.30;;;2.30;;
6251;SDS011;3159;52.414;9.784;2024-01-07T14:34:14;3.70;;;2.70;;
6251;SDS011;3159;52.414;9.784;2024-01-07T14:36:42;7.40;;;4.30;;
6251;SDS011;3159;52.414;9.784;2024-01-07T14:39:09;5.20;;;3.47;;
6251;SDS011;3159;52.414;9.784;2024-01-07T14:41:38;4.80;;;3.13;;
6251;SDS011;3159;52.414;9.784;2024-01-07T14:44:05;4.23;;;3.30;;
6251;SDS011;3159;52.414;9.784;2024-01-07T14:46:32;3.87;;;2.70;;
6251;SDS011;3159;52.414;9.784;2024-01-07T14:48:59;3.97;;;2.70;;
6251;SDS011;3159;52.414;9.784;2024-01-07T14:51:25;4.17;;;2.70;;
6251;SDS011;3159;52.414;9.784;2024-01-07T14:53:54;4.60;;;1.93;;
6251;SDS011;3159;52.414;9.784;2024-01-07T14:56:21;5.10;;;2.30;;
6251;SDS011;3159;52.414;9.784;2024-01-07T14:58:48;2.77;;;1.97;;
6251;SDS011;3159;52.414;9.784;2024-01-07T15:01:15;2.70;;;2.30;;
6251;SDS011;3159;52.414;9.784;2024-01-07T15:03:43;3.43;;;2.23;;
6251;SDS011;3159;52.414;9.784;2024-01-07T15:06:10;2.50;;;1.93;;
6251;SDS011;3159;52.414;9.784;2024-01-07T15:08:40;3.77;;;2.50;;
6251;SDS011;3159;52.414;9.784;2024-01-07T15:11:08;3.43;;;2.50;;
6251;SDS011;3159;52.414;9.784;2024-01-07T15:13:35;2.40;;;2.10;;
6251;SDS011;3159;52.414;9.784;2024-01-07T15:16:04;4.30;;;2.80;;
6251;SDS011;3159;52.414;9.784;2024-01-07T15:18:32;4.47;;;2.83;;